Waterford, Ireland
Current Conditions -  °F | °C
As of 8:30 PM on Monday 22 Dec 2014 (Local Time) from EIWF Reporting Station
Broken Clouds Broken Clouds  
Wind Chill: 52°   Ceiling: 1800
Heat Index: 52°   Visibility: 5mi
Dew Point: 48°   Wind: 17mph
Humidity: 88%   Direction: 260°W
Pressure: 29.94"   Gusts: NA
Location:  52.75°N, 7.12°W
Report Text: EIWF 222030Z 26015KT 200V300 8000 BKN018 11/09 Q1014 R21/1/////
Loading
Personal Weather Stations






























Interactive Weather Map New forecast layout! Learn more

10-Day Weather Forecast

Advertisements
Track Severe Weather on mobile